Time;durP1;ratioP1;P1;durP2;ratioP2;P2;SDS_P1;SDS_P2;PMS_P1;PMS_P2;Temp;Humidity;BMP_temperature;BMP_pressure;BME280_temperature;BME280_humidity;BME280_pressure;Samples;Min_cycle;Max_cycle;Signal;HPM_P1;HPM_P2
2021/08/11 00:02:06;;;;;;;12.25;5.30;;;;;;;23.96;52.07;98838.38;5110244;28;20084;-91
2021/08/11 00:04:31;;;;;;;11.75;5.53;;;;;;;23.93;51.99;98847.66;5113445;27;20488;-90
2021/08/11 00:06:57;;;;;;;11.60;5.40;;;;;;;23.96;51.11;98831.13;5114685;27;20043;-90
2021/08/11 00:09:23;;;;;;;12.93;5.40;;;;;;;24.08;51.38;98828.38;5114490;27;20052;-89
2021/08/11 00:11:49;;;;;;;10.82;5.70;;;;;;;24.01;51.63;98821.69;5112696;28;20031;-91
2021/08/11 00:14:16;;;;;;;12.30;5.50;;;;;;;24.10;51.28;98829.13;5112177;28;20043;-91
2021/08/11 00:16:42;;;;;;;8.40;5.53;;;;;;;24.09;50.54;98802.94;5110559;28;20035;-89
2021/08/11 00:19:07;;;;;;;9.20;5.05;;;;;;;24.24;50.74;98781.78;5112119;28;20085;-89
2021/08/11 00:21:33;;;;;;;12.55;5.28;;;;;;;24.24;50.95;98784.50;5112755;27;20035;-88
2021/08/11 00:23:59;;;;;;;12.65;5.88;;;;;;;24.27;50.40;98795.13;5112267;28;20875;-92
2021/08/11 00:26:24;;;;;;;10.23;5.95;;;;;;;24.27;50.47;98771.53;5111972;28;20489;-90
2021/08/11 00:28:50;;;;;;;10.23;5.50;;;;;;;24.30;50.85;98773.13;5112697;28;20089;-89
2021/08/11 00:31:17;;;;;;;14.80;6.20;;;;;;;24.20;50.88;98767.56;5110651;28;20039;-92
2021/08/11 00:33:43;;;;;;;12.25;5.65;;;;;;;24.31;50.53;98802.91;5112072;28;20039;-91
2021/08/11 00:36:09;;;;;;;8.48;5.47;;;;;;;24.22;49.77;98797.34;5117933;27;20719;-91
2021/08/11 00:38:35;;;;;;;11.63;5.93;;;;;;;24.26;50.43;98772.50;5112983;28;20040;-90
2021/08/11 00:41:00;;;;;;;10.38;5.70;;;;;;;24.39;50.29;98788.66;5111370;28;20046;-92
2021/08/11 00:43:26;;;;;;;11.52;5.60;;;;;;;24.49;50.37;98802.38;5111638;28;20063;-92
2021/08/11 00:45:52;;;;;;;9.68;5.55;;;;;;;24.43;50.93;98783.84;5108390;28;20039;-92
2021/08/11 00:48:21;;;;;;;10.98;5.40;;;;;;;24.40;51.06;98796.69;5113641;27;20118;-89
2021/08/11 00:50:46;;;;;;;;;;;;;;;24.39;51.32;98794.94;5113288;27;20039;-91
2021/08/11 00:53:16;;;;;;;13.23;5.15;;;;;;;24.37;51.31;98785.19;5111245;28;19923;-91
2021/08/11 00:55:42;;;;;;;9.30;5.28;;;;;;;24.42;51.34;98807.44;5110025;28;20047;-89
2021/08/11 00:58:10;;;;;;;9.70;5.35;;;;;;;24.35;51.66;98798.94;5112447;28;20039;-90
2021/08/11 01:00:40;;;;;;;12.02;5.50;;;;;;;24.32;51.49;98763.84;5109694;27;20046;-88
2021/08/11 01:03:10;;;;;;;11.30;5.78;;;;;;;24.28;52.00;98732.47;5111371;27;20576;-91
2021/08/11 01:05:39;;;;;;;11.88;5.35;;;;;;;24.24;52.49;98736.44;5110567;28;20036;-88
2021/08/11 01:08:05;;;;;;;14.43;6.22;;;;;;;24.03;52.57;98784.41;5108479;28;20032;-91
2021/08/11 01:10:31;;;;;;;11.55;5.57;;;;;;;23.90;52.24;98766.44;5112140;27;20031;-90
2021/08/11 01:12:57;;;;;;;10.65;5.60;;;;;;;24.07;52.60;98756.00;5112820;27;20042;-88
2021/08/11 01:15:23;;;;;;;15.35;5.75;;;;;;;24.21;51.96;98769.31;5115223;28;20043;-91
2021/08/11 01:17:49;;;;;;;13.25;5.57;;;;;;;23.88;52.30;98749.41;5119245;28;20557;-90
2021/08/11 01:20:15;;;;;;;11.82;5.13;;;;;;;23.86;53.22;98753.22;5114775;28;20046;-90
2021/08/11 01:22:46;;;;;;;9.30;5.30;;;;;;;23.77;52.22;98752.13;5112906;28;20031;-89
2021/08/11 01:25:18;;;;;;;11.77;5.47;;;;;;;23.90;52.26;98766.44;5111992;28;20118;-89
2021/08/11 01:28:06;;;;;;;11.75;5.93;;;;;;;24.03;52.79;98770.84;5112507;28;20515;-91
2021/08/11 01:30:37;;;;;;;8.57;5.70;;;;;;;23.97;52.71;98764.94;5108884;28;20043;-88
2021/08/11 01:33:30;;;;;;;8.73;4.93;;;;;;;23.93;52.52;98752.59;5111203;28;20122;-89
2021/08/11 01:36:00;;;;;;;8.70;5.30;;;;;;;23.85;51.47;98751.50;5103627;28;20058;-90
2021/08/11 01:38:30;;;;;;;16.77;5.35;;;;;;;23.91;52.26;98768.16;5111134;28;20040;-88
2021/08/11 01:41:01;;;;;;;11.68;5.45;;;;;;;23.92;52.24;98752.69;5112976;28;20370;-91
2021/08/11 01:43:29;;;;;;;10.48;6.03;;;;;;;23.93;52.38;98749.00;5110730;28;20047;-89
2021/08/11 01:45:57;;;;;;;12.52;5.18;;;;;;;23.83;52.81;98753.47;5109514;28;20057;-89
2021/08/11 01:48:28;;;;;;;12.43;4.90;;;;;;;23.82;52.99;98771.63;5111715;28;20126;-91
2021/08/11 01:50:55;;;;;;;11.05;5.35;;;;;;;23.90;53.46;98762.84;5110642;28;20028;-89
2021/08/11 01:53:23;;;;;;;10.48;5.43;;;;;;;23.91;53.64;98753.72;5111484;28;20123;-87
2021/08/11 01:55:53;;;;;;;7.60;4.80;;;;;;;23.93;53.10;98732.72;5113477;28;20044;-89
2021/08/11 01:58:21;;;;;;;11.32;5.88;;;;;;;23.88;53.33;98724.97;5111617;28;20834;-90
2021/08/11 02:00:47;;;;;;;10.98;5.65;;;;;;;23.97;53.27;98731.47;5108683;28;20036;-88
2021/08/11 02:03:13;;;;;;;9.52;5.78;;;;;;;23.95;53.32;98723.44;5111535;28;20044;-89
2021/08/11 02:05:41;;;;;;;12.35;6.05;;;;;;;23.90;52.97;98725.69;5112100;28;20042;-88
2021/08/11 02:08:09;;;;;;;10.63;5.10;;;;;;;23.66;51.42;98692.38;5111672;28;20126;-89
2021/08/11 02:10:37;;;;;;;12.25;5.70;;;;;;;23.95;50.00;98703.59;5112573;28;20077;-89
2021/08/11 02:13:05;;;;;;;8.70;5.00;;;;;;;24.10;49.73;98704.16;5111128;28;20046;-90
2021/08/11 02:15:31;;;;;;;11.65;5.30;;;;;;;23.96;50.68;98683.56;5090078;28;20105;-90
2021/08/11 02:17:57;;;;;;;8.88;5.00;;;;;;;24.01;51.16;98696.75;5091695;28;20394;-90
2021/08/11 02:20:23;;;;;;;11.27;5.53;;;;;;;23.82;51.15;98682.00;5093372;28;20060;-91
2021/08/11 02:22:50;;;;;;;10.88;5.40;;;;;;;23.67;51.17;98666.97;5095101;28;20052;-90
2021/08/11 02:25:16;;;;;;;12.15;5.15;;;;;;;23.72;52.07;98689.16;5096339;28;20106;-91
2021/08/11 02:27:48;;;;;;;13.00;5.82;;;;;;;23.53;53.46;98700.66;5096216;28;20393;-89
2021/08/11 02:30:18;;;;;;;8.65;5.50;;;;;;;23.51;53.29;98700.78;5092605;28;20036;-88
2021/08/11 02:32:49;;;;;;;12.50;5.15;;;;;;;23.50;52.43;98698.19;5094951;28;20032;-88
2021/08/11 02:35:20;;;;;;;13.10;5.65;;;;;;;23.72;51.15;98681.00;5095521;28;20040;-89
2021/08/11 02:37:55;;;;;;;11.13;5.70;;;;;;;23.87;50.63;98673.47;5095156;28;20036;-89
2021/08/11 02:40:26;;;;;;;10.05;5.32;;;;;;;23.91;49.71;98667.66;5094533;28;20433;-90
2021/08/11 02:42:58;;;;;;;8.98;4.88;;;;;;;24.06;48.86;98681.81;5095243;28;20036;-92
2021/08/11 02:45:27;;;;;;;11.10;5.53;;;;;;;24.17;48.98;98705.34;5092826;28;20047;-89
2021/08/11 02:47:53;;;;;;;;;;;;;;;24.18;48.59;98709.78;5096910;28;20036;-90
2021/08/11 02:50:19;;;;;;;10.85;4.80;;;;;;;24.14;48.51;98703.78;5095016;28;19920;-89
2021/08/11 02:52:46;;;;;;;12.23;5.30;;;;;;;24.10;48.60;98699.56;5094616;28;20039;-88
2021/08/11 02:55:14;;;;;;;7.50;5.13;;;;;;;23.93;48.74;98686.56;5094795;28;20083;-88
2021/08/11 02:57:40;;;;;;;9.02;5.43;;;;;;;23.90;48.49;98695.81;5093645;28;20048;-90
2021/08/11 03:00:07;;;;;;;10.82;5.05;;;;;;;23.82;49.46;98690.16;5093896;28;20048;-91
2021/08/11 03:02:33;;;;;;;9.43;4.72;;;;;;;23.82;50.29;98692.88;5095454;28;20055;-91
2021/08/11 03:05:00;;;;;;;9.68;5.63;;;;;;;23.74;50.69;98700.75;5094601;28;20036;-90
2021/08/11 03:07:29;;;;;;;9.98;5.38;;;;;;;23.63;51.29;98704.34;5094240;28;20397;-89
2021/08/11 03:09:55;;;;;;;12.43;6.38;;;;;;;23.35;52.24;98703.88;5094427;28;20039;-89
2021/08/11 03:12:22;;;;;;;11.45;4.55;;;;;;;23.22;52.55;98711.28;5095852;28;20151;-90
2021/08/11 03:14:49;;;;;;;7.60;4.80;;;;;;;23.10;52.32;98709.56;5108791;27;20039;-90
2021/08/11 03:17:15;;;;;;;11.82;5.28;;;;;;;23.00;52.86;98712.13;5113375;28;20052;-91
2021/08/11 03:19:43;;;;;;;12.35;4.80;;;;;;;22.88;53.17;98707.63;5113696;28;20035;-90
2021/08/11 03:22:10;;;;;;;8.85;5.00;;;;;;;22.81;53.70;98706.41;5113733;28;20397;-92
2021/08/11 03:24:36;;;;;;;8.25;5.40;;;;;;;22.66;53.49;98700.31;5114640;28;20138;-90
2021/08/11 03:27:03;;;;;;;10.77;4.90;;;;;;;22.69;53.35;98708.22;5114499;28;20147;-89
2021/08/11 03:29:30;;;;;;;10.85;5.20;;;;;;;22.67;53.71;98716.47;5114867;28;20717;-89
2021/08/11 03:31:56;;;;;;;11.35;5.50;;;;;;;22.38;54.26;98705.19;5110576;28;20035;-89
2021/08/11 03:34:22;;;;;;;10.40;5.22;;;;;;;22.38;54.92;98725.97;5113805;28;20127;-89
2021/08/11 03:36:47;;;;;;;8.73;5.45;;;;;;;22.25;55.15;98724.22;5113571;28;20036;-92
2021/08/11 03:39:13;;;;;;;13.13;5.78;;;;;;;22.54;52.30;98757.22;5114068;28;20048;-91
2021/08/11 03:41:39;;;;;;;10.60;4.88;;;;;;;22.89;51.73;98756.31;5113886;28;20104;-91
2021/08/11 03:44:05;;;;;;;9.75;5.18;;;;;;;23.01;50.45;98735.56;5113459;28;20050;-91
2021/08/11 03:46:32;;;;;;;10.35;4.70;;;;;;;23.38;50.07;98746.19;5111787;28;20034;-90
2021/08/11 03:48:58;;;;;;;7.70;4.80;;;;;;;23.28;50.89;98696.38;5113229;28;20493;-90
2021/08/11 03:51:24;;;;;;;8.27;5.13;;;;;;;23.32;50.13;98700.56;5113356;28;20040;-89
2021/08/11 03:53:50;;;;;;;11.20;5.00;;;;;;;23.29;51.15;98738.78;5114179;28;20384;-91
2021/08/11 03:56:16;;;;;;;9.25;4.80;;;;;;;23.16;50.17;98777.75;5114477;28;20027;-91
2021/08/11 03:58:41;;;;;;;12.13;5.80;;;;;;;23.25;53.04;98806.00;5113984;28;20392;-90
2021/08/11 04:01:07;;;;;;;11.23;5.70;;;;;;;23.10;54.06;98804.50;5110181;28;20459;-91
2021/08/11 04:03:40;;;;;;;11.02;6.00;;;;;;;22.98;54.52;98803.56;5113179;28;20032;-90
2021/08/11 04:06:05;;;;;;;14.75;6.10;;;;;;;22.88;54.85;98800.72;5111477;28;20035;-90
2021/08/11 04:08:33;;;;;;;13.82;5.95;;;;;;;22.70;55.20;98785.84;5113625;28;20043;-90
2021/08/11 04:10:59;;;;;;;12.10;6.35;;;;;;;22.63;56.07;98796.28;5115870;27;20081;-91
2021/08/11 04:13:25;;;;;;;9.07;5.70;;;;;;;22.54;56.03;98814.13;5115153;27;20392;-90
2021/08/11 04:15:51;;;;;;;13.27;5.88;;;;;;;22.31;56.78;98796.03;5111536;28;20127;-90
2021/08/11 04:18:16;;;;;;;16.13;6.03;;;;;;;22.44;56.35;98821.19;5115117;28;20059;-90
2021/08/11 04:20:44;;;;;;;10.65;5.68;;;;;;;22.46;55.95;98808.41;5115026;28;20104;-88
2021/08/11 04:23:10;;;;;;;18.17;6.72;;;;;;;22.39;56.24;98822.56;5115860;27;20036;-89
2021/08/11 04:25:37;;;;;;;14.27;6.00;;;;;;;22.37;56.67;98824.50;5113061;28;20039;-88
2021/08/11 04:28:03;;;;;;;13.27;6.22;;;;;;;22.18;57.27;98814.13;5109838;28;20036;-90
2021/08/11 04:30:29;;;;;;;10.43;5.72;;;;;;;22.08;57.80;98822.09;5111094;28;20051;-90
2021/08/11 04:33:00;;;;;;;10.82;6.40;;;;;;;22.32;57.84;98836.53;5112362;28;20481;-90
2021/08/11 04:35:26;;;;;;;13.20;5.80;;;;;;;22.52;57.06;98831.47;5113297;28;20036;-90
2021/08/11 04:37:57;;;;;;;16.15;6.20;;;;;;;22.52;57.56;98812.50;5114398;28;20442;-90
2021/08/11 04:40:24;;;;;;;12.00;5.93;;;;;;;22.53;56.25;98779.88;5113577;28;20139;-89
2021/08/11 04:42:50;;;;;;;10.95;6.88;;;;;;;22.68;56.27;98760.69;5111372;28;20047;-89
2021/08/11 04:45:16;;;;;;;11.82;5.95;;;;;;;22.70;55.75;98807.53;5111302;28;20127;-90
2021/08/11 04:50:59;;;;;;;9.25;5.78;;;;;;;22.62;55.84;98921.97;5090183;27;20370;-88
2021/08/11 04:53:27;;;;;;;11.82;6.15;;;;;;;22.80;54.82;98880.91;5085947;28;20394;-89
2021/08/11 04:55:53;;;;;;;13.05;5.70;;;;;;;22.94;54.74;98872.56;5090072;28;20390;-89
2021/08/11 04:58:19;;;;;;;11.02;5.47;;;;;;;23.13;53.66;98861.22;5089665;28;20042;-89
2021/08/11 05:00:44;;;;;;;13.00;5.70;;;;;;;23.31;53.40;98842.63;5087336;28;20124;-92
2021/08/11 05:03:13;;;;;;;10.50;5.63;;;;;;;23.47;53.15;98829.59;5090855;28;20036;-88
2021/08/11 05:05:44;;;;;;;10.07;5.82;;;;;;;23.20;53.34;98797.34;5089900;28;20036;-89
2021/08/11 05:08:13;;;;;;;11.95;5.75;;;;;;;23.37;53.82;98744.47;5089536;28;20036;-90
2021/08/11 05:10:39;;;;;;;11.15;5.50;;;;;;;23.19;54.58;98670.00;5091294;28;20494;-92
2021/08/11 05:13:05;;;;;;;12.68;6.57;;;;;;;22.64;57.22;98738.41;5091465;28;20086;-92
2021/08/11 05:15:30;;;;;;;15.23;6.25;;;;;;;22.67;57.60;98791.50;5087484;28;20486;-89
2021/08/11 05:18:01;;;;;;;12.55;6.38;;;;;;;22.69;57.44;98811.25;5087526;28;20048;-91
2021/08/11 05:20:27;;;;;;;11.18;6.47;;;;;;;22.83;57.16;98802.03;5089732;28;20040;-92
2021/08/11 05:22:53;;;;;;;17.95;6.03;;;;;;;22.90;57.00;98795.16;5089377;28;20032;-89
2021/08/11 05:25:21;;;;;;;10.73;5.97;;;;;;;22.98;56.96;98836.09;5089344;28;20079;-90
2021/08/11 05:27:46;;;;;;;13.38;5.95;;;;;;;23.04;56.39;98832.09;5088613;28;20143;-90
2021/08/11 05:30:13;;;;;;;15.65;6.35;;;;;;;23.12;57.13;98845.94;5086506;28;20142;-89
2021/08/11 05:32:39;;;;;;;16.90;6.18;;;;;;;23.21;56.31;98850.63;5090940;28;20040;-88
2021/08/11 05:38:05;;;;;;;11.45;6.55;;;;;;;23.61;55.82;98868.34;5091043;27;20371;-88
2021/08/11 05:40:33;;;;;;;11.27;5.85;;;;;;;23.95;53.56;98886.41;5091586;28;20056;-89
2021/08/11 05:42:59;;;;;;;14.95;6.32;;;;;;;24.11;53.35;98912.34;5089398;28;20397;-89
2021/08/11 05:45:25;;;;;;;10.40;6.40;;;;;;;24.46;52.75;98930.34;5090424;28;20051;-91
2021/08/11 05:47:51;;;;;;;11.48;6.15;;;;;;;24.49;52.55;98947.31;5090542;28;20033;-89
2021/08/11 05:50:16;;;;;;;16.50;6.53;;;;;;;24.46;53.41;98927.63;5091922;28;20127;-89
2021/08/11 05:52:42;;;;;;;11.48;5.68;;;;;;;24.37;52.50;98911.09;5090602;28;20064;-90
2021/08/11 05:55:10;;;;;;;13.13;6.70;;;;;;;24.38;52.12;98884.78;5091277;28;20048;-91
2021/08/11 05:57:38;;;;;;;12.68;5.88;;;;;;;24.43;51.68;98849.94;5090797;28;20040;-88
2021/08/11 06:00:08;;;;;;;9.88;5.82;;;;;;;24.51;50.84;98811.28;5088575;28;20028;-87
2021/08/11 06:02:34;;;;;;;9.00;5.45;;;;;;;24.58;50.67;98804.31;5091122;28;20028;-91
2021/08/11 06:05:00;;;;;;;11.63;6.32;;;;;;;24.29;51.70;98793.13;5091155;28;20067;-89
2021/08/11 06:07:26;;;;;;;22.65;6.13;;;;;;;24.18;52.65;98802.16;5090735;28;20378;-86
2021/08/11 06:09:51;;;;;;;13.55;6.35;;;;;;;24.09;53.51;98805.66;5090128;28;20402;-90
2021/08/11 06:12:19;;;;;;;13.85;6.43;;;;;;;23.94;54.73;98799.63;5090780;28;20101;-88
2021/08/11 06:14:44;;;;;;;12.02;6.65;;;;;;;23.82;55.10;98784.34;5087920;28;20119;-90
2021/08/11 06:17:10;;;;;;;13.02;6.55;;;;;;;23.77;55.37;98769.28;5088460;28;20124;-91
2021/08/11 06:19:36;;;;;;;17.42;6.65;;;;;;;23.77;54.85;98755.72;5090897;28;20033;-89
2021/08/11 06:22:02;;;;;;;12.48;6.18;;;;;;;23.69;55.31;98739.13;5090312;28;20060;-90
2021/08/11 06:24:28;;;;;;;12.82;5.97;;;;;;;23.86;54.94;98747.81;5090599;28;20133;-90
2021/08/11 06:26:54;;;;;;;14.10;6.18;;;;;;;23.96;54.14;98744.19;5090346;28;20033;-89
2021/08/11 06:29:21;;;;;;;14.73;6.65;;;;;;;24.09;52.99;98745.88;5090341;28;20127;-90
2021/08/11 06:31:47;;;;;;;13.27;6.43;;;;;;;24.26;52.06;98761.63;5086899;28;20444;-90
2021/08/11 06:34:12;;;;;;;14.88;6.38;;;;;;;24.30;51.97;98768.53;5088956;28;20032;-91
2021/08/11 06:36:38;;;;;;;15.43;6.50;;;;;;;24.58;50.97;98763.53;5088915;28;20093;-92
2021/08/11 06:39:04;;;;;;;16.00;6.43;;;;;;;24.39;51.33;98742.44;5090182;28;20038;-88
2021/08/11 06:41:30;;;;;;;15.70;6.10;;;;;;;24.76;50.72;98742.06;5089283;28;20486;-90
2021/08/11 06:43:55;;;;;;;15.27;6.25;;;;;;;25.11;49.02;98760.78;5090485;28;20036;-91
2021/08/11 06:46:23;;;;;;;16.10;6.30;;;;;;;25.58;48.31;98780.22;5086715;28;20089;-93
2021/08/11 06:48:48;;;;;;;16.08;7.43;;;;;;;25.59;46.60;98772.91;5077850;28;20042;-91
2021/08/11 06:51:14;;;;;;;18.38;5.88;;;;;;;25.87;46.17;98787.66;5075027;28;20115;-90
2021/08/11 06:53:40;;;;;;;14.48;5.60;;;;;;;26.14;45.47;98784.34;5074351;28;20028;-90
2021/08/11 06:56:06;;;;;;;11.02;6.20;;;;;;;26.32;44.19;98784.50;5072558;28;20037;-89
2021/08/11 06:58:33;;;;;;;14.30;5.88;;;;;;;26.42;43.41;98809.06;5074356;28;20033;-92
2021/08/11 07:00:59;;;;;;;12.00;5.25;;;;;;;26.46;43.36;98790.53;5072510;28;20048;-94
2021/08/11 07:03:27;;;;;;;11.85;5.70;;;;;;;26.96;43.57;98795.91;5074471;28;20037;-94
2021/08/11 07:05:52;;;;;;;15.57;5.85;;;;;;;27.30;42.77;98807.22;5074345;28;20420;-94
2021/08/11 07:08:20;;;;;;;12.43;5.78;;;;;;;27.63;42.61;98805.84;5076133;28;20028;-90
2021/08/11 07:10:46;;;;;;;11.30;6.05;;;;;;;27.79;41.39;98813.41;5076342;28;20497;-93
2021/08/11 07:13:11;;;;;;;15.60;5.75;;;;;;;27.98;40.81;98841.72;5074801;28;20056;-89
2021/08/11 07:15:37;;;;;;;15.82;5.70;;;;;;;27.76;41.44;98845.63;5072697;28;20486;-91
2021/08/11 07:18:03;;;;;;;11.95;6.00;;;;;;;27.89;41.09;98843.47;5074820;28;20405;-90
2021/08/11 07:20:31;;;;;;;11.38;6.15;;;;;;;27.76;41.81;98831.94;5074626;28;20044;-90
2021/08/11 07:22:58;;;;;;;15.75;6.13;;;;;;;27.72;41.88;98827.81;5075847;28;20037;-90
2021/08/11 07:25:25;;;;;;;11.63;5.72;;;;;;;27.49;42.39;98851.91;5076013;28;20522;-91
2021/08/11 07:27:51;;;;;;;15.13;5.50;;;;;;;27.62;42.66;98850.56;5075832;28;20048;-91
2021/08/11 07:30:16;;;;;;;16.98;5.82;;;;;;;28.03;42.06;98831.16;5073451;28;20055;-91
2021/08/11 07:32:43;;;;;;;14.70;5.90;;;;;;;28.57;41.12;98850.47;5074591;28;20044;-91
2021/08/11 07:35:09;;;;;;;14.50;6.03;;;;;;;28.70;40.10;98858.31;5074384;28;20054;-90
2021/08/11 07:37:46;;;;;;;12.30;5.80;;;;;;;28.84;40.26;98846.81;5075036;28;20049;-91
2021/08/11 07:40:13;;;;;;;14.40;5.82;;;;;;;28.96;39.01;98831.03;5073558;28;21563;-92
2021/08/11 07:42:39;;;;;;;17.15;6.28;;;;;;;29.00;38.78;98830.53;5075362;28;20123;-92
2021/08/11 07:45:05;;;;;;;12.63;5.72;;;;;;;29.24;38.14;98835.41;5071323;28;20055;-91
2021/08/11 07:47:31;;;;;;;11.15;6.28;;;;;;;29.34;37.72;98835.28;5074098;28;20044;-91
2021/08/11 07:49:56;;;;;;;13.52;5.40;;;;;;;29.76;37.32;98848.28;5074309;28;20044;-91
2021/08/11 07:52:22;;;;;;;13.38;5.78;;;;;;;29.78;36.46;98838.03;5075717;28;20033;-92
2021/08/11 07:54:49;;;;;;;11.15;5.55;;;;;;;29.86;35.81;98840.81;5075839;28;20033;-92
2021/08/11 07:57:15;;;;;;;9.85;5.40;;;;;;;30.08;36.32;98850.34;5075388;28;20041;-92
2021/08/11 07:59:41;;;;;;;10.48;5.57;;;;;;;30.22;35.96;98845.25;5073139;28;20540;-93
2021/08/11 08:02:10;;;;;;;9.68;5.18;;;;;;;30.46;35.67;98831.66;5071169;28;20033;-91
2021/08/11 08:04:37;;;;;;;9.90;5.20;;;;;;;30.84;34.63;98843.06;5073836;28;20047;-91
2021/08/11 08:07:03;;;;;;;9.68;5.38;;;;;;;30.96;34.41;98831.78;5073773;28;20048;-91
2021/08/11 08:09:29;;;;;;;15.20;5.75;;;;;;;30.92;34.50;98853.22;5074822;28;20056;-93
2021/08/11 08:11:56;;;;;;;13.13;5.40;;;;;;;30.39;34.99;98837.97;5075377;28;20510;-91
2021/08/11 08:14:22;;;;;;;16.88;5.93;;;;;;;30.08;35.54;98855.84;5072875;28;20414;-92
2021/08/11 08:16:48;;;;;;;11.88;6.47;;;;;;;30.32;35.50;98858.84;5018619;28;20140;-92
2021/08/11 08:19:14;;;;;;;14.45;7.47;;;;;;;30.79;34.52;98870.16;5072768;28;20032;-92
2021/08/11 08:21:40;;;;;;;17.00;9.10;;;;;;;31.17;34.85;98858.75;5073407;28;20079;-92
2021/08/11 08:24:06;;;;;;;14.88;7.47;;;;;;;31.60;33.95;98860.28;5073330;28;20089;-92
2021/08/11 08:26:31;;;;;;;16.58;7.93;;;;;;;31.58;33.25;98854.13;5073712;28;20398;-93
2021/08/11 08:28:59;;;;;;;12.80;6.05;;;;;;;31.61;33.41;98859.25;5075716;28;20047;-92
2021/08/11 08:31:25;;;;;;;9.70;5.38;;;;;;;31.83;32.75;98857.66;5073024;28;20044;-91
2021/08/11 08:33:54;;;;;;;9.65;5.72;;;;;;;31.76;32.90;98861.28;5073256;28;20044;-92
2021/08/11 08:36:20;;;;;;;14.07;6.20;;;;;;;31.72;33.48;98866.28;5075897;28;20401;-92
2021/08/11 08:38:46;;;;;;;15.65;5.80;;;;;;;31.88;32.89;98868.13;5075229;28;20128;-92
2021/08/11 08:41:12;;;;;;;10.95;6.05;;;;;;;31.69;33.14;98859.25;5074609;28;20037;-92
2021/08/11 08:43:38;;;;;;;13.73;6.05;;;;;;;31.76;33.31;98853.91;5070387;28;20044;-93
2021/08/11 08:46:07;;;;;;;10.55;5.90;;;;;;;31.76;32.80;98844.81;5073847;28;20094;-92
2021/08/11 08:48:37;;;;;;;17.40;6.40;;;;;;;31.90;32.41;98855.06;5075738;28;20040;-94
2021/08/11 08:51:04;;;;;;;15.35;6.13;;;;;;;31.83;33.03;98846.66;5076276;28;20043;-93
2021/08/11 08:53:30;;;;;;;12.30;6.47;;;;;;;32.08;32.61;98850.22;5075805;28;20023;-95
2021/08/11 08:55:57;;;;;;;17.25;6.68;;;;;;;32.20;32.46;98852.59;5073716;28;20513;-89
2021/08/11 08:58:22;;;;;;;13.50;6.35;;;;;;;32.23;31.27;98824.75;5073171;28;20048;-90
2021/08/11 09:00:48;;;;;;;14.55;5.90;;;;;;;31.42;32.81;98830.22;5071307;28;20048;-94
2021/08/11 09:03:16;;;;;;;12.35;6.13;;;;;;;30.98;33.09;98819.59;5073179;28;20044;-93
2021/08/11 09:05:42;;;;;;;10.70;6.35;;;;;;;31.42;33.25;98837.59;5074355;28;20040;-90
2021/08/11 09:08:08;;;;;;;12.50;6.47;;;;;;;31.72;32.37;98814.03;5074212;28;20032;-91
2021/08/11 09:10:37;;;;;;;11.40;7.47;;;;;;;32.08;31.83;98821.88;5073781;28;20040;-90
2021/08/11 09:16:05;;;;;;;13.73;5.90;;;;;;;32.08;32.00;98825.47;5164272;27;20623;-89
2021/08/11 09:18:31;;;;;;;15.32;6.90;;;;;;;32.48;31.84;98825.44;5132536;27;20035;-91
2021/08/11 09:24:17;;;;;;;9.82;5.78;;;;;;;32.72;30.49;98818.97;5172421;27;20322;-90
2021/08/11 09:26:43;;;;;;;8.80;5.80;;;;;;;32.70;30.84;98823.78;5172718;27;20731;-91
2021/08/11 09:29:09;;;;;;;11.82;6.10;;;;;;;32.72;31.00;98813.47;5174604;27;20031;-91
2021/08/11 09:31:35;;;;;;;14.27;6.13;;;;;;;33.00;30.27;98822.03;5173033;27;20062;-92
2021/08/11 09:34:03;;;;;;;13.10;6.45;;;;;;;33.14;29.60;98801.13;5174757;27;20035;-89
2021/08/11 09:36:40;;;;;;;10.55;5.60;;;;;;;33.34;28.74;98813.34;5174303;27;20145;-94
2021/08/11 09:39:08;;;;;;;13.52;6.20;;;;;;;33.29;28.53;98790.13;5171423;27;20041;-91
2021/08/11 09:41:35;;;;;;;12.73;5.40;;;;;;;33.50;28.29;98794.91;5171994;27;20061;-91
2021/08/11 09:44:06;;;;;;;18.13;5.93;;;;;;;33.53;27.61;98787.13;5172361;27;20031;-91
2021/08/11 09:46:32;;;;;;;11.43;5.55;;;;;;;33.53;28.26;98789.88;5170441;27;20117;-90
2021/08/11 09:48:57;;;;;;;11.15;5.50;;;;;;;33.53;27.91;98780.78;5175075;27;20073;-92
2021/08/11 09:51:23;;;;;;;11.88;5.80;;;;;;;33.34;27.73;98790.44;5173610;27;20041;-90
2021/08/11 09:53:49;;;;;;;15.90;5.60;;;;;;;33.45;28.04;98764.31;5173297;27;20043;-89
2021/08/11 09:56:17;;;;;;;16.55;5.47;;;;;;;33.52;27.43;98766.09;5172350;27;20061;-91
2021/08/11 09:58:44;;;;;;;11.67;5.53;;;;;;;33.47;27.94;98768.59;5171992;27;20042;-90
2021/08/11 10:01:24;;;;;;;14.37;5.80;;;;;;;33.63;28.14;98764.81;5172668;27;20117;-90
2021/08/11 10:06:50;;;;;;;14.43;5.97;;;;;;;33.87;27.39;98760.06;5090340;27;20113;-88
2021/08/11 10:09:26;;;;;;;14.80;5.90;;;;;;;33.61;27.23;98764.16;5087463;28;20052;-92
2021/08/11 10:11:54;;;;;;;14.63;5.80;;;;;;;33.75;26.34;98757.78;5089915;28;20033;-91
2021/08/11 10:14:22;;;;;;;16.85;5.30;;;;;;;33.35;27.36;98737.88;5086156;28;20080;-91
2021/08/11 10:16:48;;;;;;;;;;;;;;;33.58;27.12;98750.72;5087754;28;20040;-90
2021/08/11 10:19:15;;;;;;;9.10;5.43;;;;;;;33.96;26.96;98757.00;5089954;28;20286;-93
2021/08/11 10:21:46;;;;;;;11.50;5.43;;;;;;;33.87;25.87;98741.59;5089862;28;20054;-92
2021/08/11 10:24:14;;;;;;;12.90;5.70;;;;;;;33.01;27.16;98748.50;5090215;28;20036;-90
2021/08/11 10:26:40;;;;;;;16.45;5.90;;;;;;;33.13;27.28;98752.56;5092065;28;20481;-89
2021/08/11 10:29:06;;;;;;;14.18;5.38;;;;;;;33.63;26.39;98756.53;5091487;28;20036;-91
2021/08/11 10:31:32;;;;;;;14.18;5.75;;;;;;;33.50;26.62;98728.75;5089248;28;20066;-90
2021/08/11 10:34:01;;;;;;;15.98;5.80;;;;;;;33.76;25.98;98751.22;5091969;28;20040;-91
2021/08/11 10:36:28;;;;;;;13.43;5.63;;;;;;;33.89;26.28;98745.00;5091566;28;20040;-92
2021/08/11 10:38:56;;;;;;;14.77;5.95;;;;;;;33.51;26.45;98733.22;5090996;28;20029;-91
2021/08/11 10:41:30;;;;;;;15.35;6.22;;;;;;;33.95;26.44;98737.88;5089718;28;20851;-92
2021/08/11 10:43:56;;;;;;;16.00;5.88;;;;;;;34.24;25.71;98725.09;5090276;28;20035;-92
2021/08/11 10:46:29;;;;;;;18.73;5.95;;;;;;;34.43;25.38;98720.84;5087651;28;20128;-90
2021/08/11 10:49:01;;;;;;;14.30;5.93;;;;;;;34.52;24.34;98706.72;5089649;28;20036;-93
2021/08/11 10:51:38;;;;;;;17.30;5.90;;;;;;;34.63;24.99;98707.28;5090108;28;20040;-91
2021/08/11 10:54:06;;;;;;;15.13;6.00;;;;;;;34.67;25.51;98697.53;5090282;28;20394;-92
2021/08/11 10:56:43;;;;;;;;;;;;;;;34.78;24.73;98700.59;5090087;28;20445;-92
2021/08/11 10:59:43;;;;;;;14.13;5.57;;;;;;;34.26;25.28;98681.59;5084413;28;20377;-93
2021/08/11 11:02:43;;;;;;;14.07;5.63;;;;;;;34.54;24.81;98701.84;5088768;28;20770;-91
2021/08/11 11:06:02;;;;;;;20.88;6.75;;;;;;;34.47;26.11;98706.47;5088599;28;20047;-92
2021/08/11 11:08:35;;;;;;;13.82;6.28;;;;;;;34.65;25.38;98705.16;5088437;28;20059;-92
2021/08/11 11:11:32;;;;;;;14.52;5.82;;;;;;;34.80;24.49;98692.13;5088491;28;20032;-90
2021/08/11 11:14:00;;;;;;;15.15;5.68;;;;;;;34.86;25.54;98691.34;5084874;28;20119;-92
2021/08/11 11:17:11;;;;;;;13.50;6.13;;;;;;;34.48;24.94;98693.50;5084751;28;20135;-91
2021/08/11 11:20:25;;;;;;;13.65;5.75;;;;;;;33.96;25.61;98696.31;5076992;28;20520;-92
2021/08/11 11:22:56;;;;;;;13.55;5.93;;;;;;;34.33;25.71;98690.78;5075665;28;20033;-91
2021/08/11 11:26:07;;;;;;;13.55;5.70;;;;;;;34.64;25.66;98686.91;5074802;28;20033;-90
2021/08/11 11:29:00;;;;;;;17.35;5.68;;;;;;;34.93;24.60;98691.41;5074876;28;20123;-89
2021/08/11 11:31:51;;;;;;;14.45;5.90;;;;;;;35.15;24.85;98686.69;5073786;28;20489;-91
2021/08/11 11:34:28;;;;;;;18.20;6.38;;;;;;;35.13;23.75;98683.28;5074087;28;20101;-90
2021/08/11 11:37:21;;;;;;;15.18;5.65;;;;;;;35.23;24.20;98681.03;5075003;28;20044;-92
2021/08/11 11:40:19;;;;;;;16.88;5.70;;;;;;;35.14;24.06;98682.25;5074615;28;20044;-93
2021/08/11 11:42:46;;;;;;;15.52;5.93;;;;;;;35.25;24.13;98665.09;5074597;28;20040;-92
2021/08/11 11:45:37;;;;;;;14.07;5.80;;;;;;;35.24;23.57;98662.50;5072952;28;20540;-90
2021/08/11 11:48:03;;;;;;;15.23;6.15;;;;;;;35.09;24.24;98662.59;5070391;28;20130;-89
2021/08/11 11:50:32;;;;;;;12.43;5.60;;;;;;;35.34;24.65;98672.16;5075605;28;20048;-91